Time;durP1;ratioP1;P1;durP2;ratioP2;P2;SDS_P1;SDS_P2;PMS_P1;PMS_P2;Temp;Humidity;BMP_temperature;BMP_pressure;BME280_temperature;BME280_humidity;BME280_pressure;Samples;Min_cycle;Max_cycle;Signal;HPM_P1;HPM_P2
2023/05/29 00:02:01;;;;;;;11.35;5.50;;;;;;;16.70;100.00;99995.22;4895268;29;20045;-72
2023/05/29 00:04:26;;;;;;;17.33;6.30;;;;;;;16.94;100.00;100065.75;4862732;29;20526;-71
2023/05/29 00:06:52;;;;;;;13.18;5.50;;;;;;;16.94;100.00;100065.75;4895112;29;20411;-74
2023/05/29 00:09:17;;;;;;;14.32;6.03;;;;;;;17.00;100.00;100062.31;4895091;29;20068;-72
2023/05/29 00:11:43;;;;;;;10.60;5.15;;;;;;;16.90;100.00;100058.75;4893156;29;20497;-71
2023/05/29 00:14:12;;;;;;;9.15;5.57;;;;;;;16.86;100.00;100061.34;4895104;29;20044;-71
2023/05/29 00:16:38;;;;;;;11.02;6.00;;;;;;;16.81;100.00;100063.94;4877881;29;20075;-72
2023/05/29 00:19:03;;;;;;;12.20;5.75;;;;;;;16.82;100.00;100069.16;4894616;29;20079;-73
2023/05/29 00:21:29;;;;;;;11.55;5.88;;;;;;;16.70;100.00;100068.22;4895094;29;20032;-76
2023/05/29 00:23:54;;;;;;;10.63;5.35;;;;;;;16.61;100.00;100059.50;4894847;29;20431;-73
2023/05/29 00:26:20;;;;;;;11.70;6.28;;;;;;;16.65;100.00;100061.25;4877729;29;20035;-72
2023/05/29 00:28:46;;;;;;;9.77;6.10;;;;;;;16.82;100.00;100083.91;4894468;29;20535;-72
2023/05/29 00:31:11;;;;;;;13.40;6.47;;;;;;;16.86;100.00;100090.91;4876782;29;20124;-72
2023/05/29 00:33:37;;;;;;;11.80;6.07;;;;;;;16.90;100.00;100097.88;4894605;29;20021;-71
2023/05/29 00:36:02;;;;;;;13.90;6.25;;;;;;;16.45;100.00;100001.19;4894849;29;20032;-71
2023/05/29 00:38:28;;;;;;;13.00;6.50;;;;;;;16.86;100.00;100082.19;4894724;29;20040;-72
2023/05/29 00:40:53;;;;;;;11.60;6.00;;;;;;;16.95;100.00;100096.19;4894379;29;20088;-73
2023/05/29 00:43:19;;;;;;;9.43;6.30;;;;;;;16.89;100.00;100090.06;4894311;29;20089;-71
2023/05/29 00:45:44;;;;;;;13.30;6.85;;;;;;;16.91;100.00;100093.50;4894699;29;20028;-71
2023/05/29 00:48:10;;;;;;;13.35;6.53;;;;;;;16.99;100.00;100091.88;4894661;29;20410;-71
2023/05/29 00:50:35;;;;;;;15.52;6.63;;;;;;;16.96;100.00;100077.06;4894476;29;20025;-70
2023/05/29 00:53:02;;;;;;;11.55;6.32;;;;;;;17.19;100.00;100098.91;4892653;29;20029;-73
2023/05/29 00:55:29;;;;;;;11.50;5.55;;;;;;;17.26;100.00;100095.47;4895053;29;20107;-73
2023/05/29 00:57:55;;;;;;;15.15;6.40;;;;;;;17.33;100.00;100097.19;4897809;29;20653;-72
2023/05/29 01:00:21;;;;;;;19.02;7.25;;;;;;;17.23;100.00;100067.59;4881879;29;20037;-70
2023/05/29 01:02:47;;;;;;;15.63;6.25;;;;;;;17.41;100.00;100089.41;4898632;29;20052;-70
2023/05/29 01:05:14;;;;;;;15.25;6.32;;;;;;;16.98;100.00;100024.91;4886028;29;20392;-72
2023/05/29 01:07:40;;;;;;;14.57;6.70;;;;;;;17.33;100.00;100085.91;4897963;29;20423;-73
2023/05/29 01:10:07;;;;;;;14.10;6.03;;;;;;;17.32;100.00;100086.75;4886151;29;20068;-75
2023/05/29 01:12:40;;;;;;;9.30;5.65;;;;;;;17.06;100.00;100040.59;4897948;29;20040;-72
2023/05/29 01:15:30;;;;;;;11.63;6.28;;;;;;;17.43;100.00;100087.66;4897757;29;20036;-71
2023/05/29 01:17:55;;;;;;;;;;;;;;;17.44;100.00;100085.06;4898510;29;20060;-73
2023/05/29 01:20:56;;;;;;;12.35;5.80;;;;;;;17.44;100.00;100069.41;4898510;29;19947;-71
2023/05/29 01:23:36;;;;;;;8.75;5.55;;;;;;;17.43;100.00;100083.34;4821404;29;20078;-71
2023/05/29 01:26:17;;;;;;;12.65;6.20;;;;;;;17.48;100.00;100075.50;4821303;29;20046;-72
2023/05/29 01:28:51;;;;;;;12.80;5.45;;;;;;;17.30;100.00;100055.47;4821417;29;20061;-71
2023/05/29 01:31:23;;;;;;;12.57;5.47;;;;;;;17.34;100.00;100088.50;4805725;29;20086;-71
2023/05/29 01:33:55;;;;;;;11.80;5.88;;;;;;;17.35;100.00;100084.19;4821184;29;20129;-70
2023/05/29 01:36:21;;;;;;;9.40;5.95;;;;;;;17.33;100.00;100071.09;4805911;29;20066;-74
2023/05/29 01:38:48;;;;;;;9.50;5.38;;;;;;;17.40;100.00;100067.66;4821148;29;20038;-73
2023/05/29 01:41:15;;;;;;;12.20;5.70;;;;;;;17.08;100.00;100007.56;4820924;29;20212;-71
2023/05/29 01:43:44;;;;;;;11.32;5.63;;;;;;;17.25;100.00;100042.41;4820770;29;20557;-70
2023/05/29 01:46:12;;;;;;;12.10;6.20;;;;;;;17.35;100.00;100058.94;4819829;29;20041;-69
2023/05/29 01:48:37;;;;;;;11.32;6.22;;;;;;;17.47;100.00;100079.00;4820774;29;20525;-70
2023/05/29 01:51:03;;;;;;;10.02;5.30;;;;;;;16.99;100.00;100000.59;4820594;29;20063;-70
2023/05/29 01:53:29;;;;;;;13.88;6.03;;;;;;;17.08;100.00;100046.69;4820883;29;20038;-71
2023/05/29 01:55:54;;;;;;;12.98;6.03;;;;;;;17.26;100.00;100085.03;4820694;29;20563;-72
2023/05/29 01:58:22;;;;;;;7.72;5.65;;;;;;;16.89;100.00;100017.03;4820669;29;20516;-72
2023/05/29 02:00:47;;;;;;;9.45;5.80;;;;;;;17.06;100.00;100074.50;4866524;29;20044;-71
2023/05/29 02:03:13;;;;;;;9.77;5.75;;;;;;;16.88;100.00;100057.00;4897324;29;20036;-71
2023/05/29 02:05:38;;;;;;;13.82;6.28;;;;;;;16.86;100.00;100049.19;4897292;29;20041;-71
2023/05/29 02:08:04;;;;;;;12.52;6.25;;;;;;;17.12;100.00;100079.72;4897061;29;20079;-70
2023/05/29 02:10:31;;;;;;;13.88;6.68;;;;;;;17.16;100.00;100076.28;4897171;29;20395;-70
2023/05/29 02:12:57;;;;;;;11.30;5.95;;;;;;;17.23;100.00;100075.41;4897096;29;20032;-74
2023/05/29 02:15:22;;;;;;;11.82;5.97;;;;;;;17.17;100.00;100064.09;4897005;29;20036;-69
2023/05/29 02:17:49;;;;;;;12.43;6.05;;;;;;;17.25;100.00;100081.53;4897137;29;20160;-68
2023/05/29 02:20:15;;;;;;;10.88;6.03;;;;;;;17.14;100.00;100088.44;4897013;29;20148;-72
2023/05/29 02:22:41;;;;;;;9.35;6.05;;;;;;;17.04;100.00;100081.47;4897429;29;20061;-71
2023/05/29 02:25:07;;;;;;;11.55;6.78;;;;;;;17.13;100.00;100084.09;4896342;29;20063;-71
2023/05/29 02:27:32;;;;;;;11.25;6.38;;;;;;;17.20;100.00;100088.47;4880010;29;20043;-73
2023/05/29 02:29:58;;;;;;;15.15;6.00;;;;;;;17.07;100.00;100073.63;4896903;29;20144;-70
2023/05/29 02:32:25;;;;;;;12.57;7.22;;;;;;;16.84;100.00;100073.53;4896740;29;20099;-71
2023/05/29 02:34:52;;;;;;;12.43;6.93;;;;;;;16.57;100.00;100042.06;4896453;29;20047;-72
2023/05/29 02:37:17;;;;;;;11.93;6.07;;;;;;;16.75;100.00;100063.91;4896683;29;20024;-72
2023/05/29 02:39:43;;;;;;;11.02;6.50;;;;;;;16.78;100.00;100076.94;4896555;29;20369;-73
2023/05/29 02:42:08;;;;;;;10.88;6.30;;;;;;;16.84;100.00;100089.16;4896805;29;20464;-71
2023/05/29 02:44:34;;;;;;;13.00;5.90;;;;;;;16.88;100.00;100078.72;4896580;29;20440;-71
2023/05/29 02:46:59;;;;;;;12.20;5.88;;;;;;;16.91;100.00;100060.53;4896778;29;20040;-77
2023/05/29 02:49:25;;;;;;;11.35;5.72;;;;;;;17.00;100.00;100088.41;4896315;29;20028;-72
2023/05/29 02:51:56;;;;;;;10.98;6.30;;;;;;;16.88;100.00;100068.31;4896818;29;20063;-73
2023/05/29 02:54:21;;;;;;;16.33;6.47;;;;;;;16.99;100.00;100078.81;4895586;29;20423;-72
2023/05/29 02:56:47;;;;;;;13.70;6.22;;;;;;;17.18;100.00;100099.78;4896252;29;20032;-73
2023/05/29 02:59:12;;;;;;;11.90;5.72;;;;;;;17.18;100.00;100091.94;4896401;29;20119;-75
2023/05/29 03:01:38;;;;;;;10.38;5.13;;;;;;;17.22;100.00;100112.84;4896258;29;20546;-76
2023/05/29 03:04:03;;;;;;;9.95;5.45;;;;;;;16.79;100.00;100034.38;4894700;29;20043;-71
2023/05/29 03:06:29;;;;;;;15.05;5.22;;;;;;;17.17;100.00;100111.06;4896075;29;20075;-72
2023/05/29 03:08:54;;;;;;;12.65;5.85;;;;;;;16.98;100.00;100075.34;4895401;29;20064;-74
2023/05/29 03:11:23;;;;;;;11.52;6.05;;;;;;;16.87;100.00;100057.88;4896427;29;20028;-71
2023/05/29 03:13:49;;;;;;;21.27;5.80;;;;;;;16.79;100.00;100084.78;4896036;29;20040;-75
2023/05/29 03:16:14;;;;;;;11.00;5.95;;;;;;;16.75;100.00;100105.63;4896291;29;20040;-72
2023/05/29 03:18:41;;;;;;;11.50;5.78;;;;;;;16.43;100.00;100069.81;4895393;29;20037;-73
2023/05/29 03:21:06;;;;;;;14.70;6.20;;;;;;;16.71;100.00;100117.75;4896221;29;20076;-73
2023/05/29 03:23:32;;;;;;;16.55;6.47;;;;;;;16.86;100.00;100122.19;4895838;29;20414;-76
2023/05/29 03:25:57;;;;;;;12.38;6.53;;;;;;;16.95;100.00;100131.84;4895951;29;20790;-73
2023/05/29 03:28:23;;;;;;;13.07;6.00;;;;;;;16.97;100.00;100130.09;4895358;29;20036;-73
2023/05/29 03:30:49;;;;;;;10.93;6.22;;;;;;;16.94;100.00;100128.34;4895952;29;20084;-72
2023/05/29 03:33:15;;;;;;;15.05;5.90;;;;;;;16.90;100.00;100115.25;4895874;29;20079;-72
2023/05/29 03:35:40;;;;;;;14.13;5.68;;;;;;;16.86;100.00;100110.88;4895697;29;20044;-70
2023/05/29 03:38:07;;;;;;;12.35;5.75;;;;;;;16.85;100.00;100123.06;4895191;29;20039;-72
2023/05/29 03:40:32;;;;;;;10.93;5.57;;;;;;;16.73;100.00;100128.19;4894582;29;20458;-72
2023/05/29 03:42:58;;;;;;;12.23;6.40;;;;;;;16.63;100.00;100122.03;4896149;29;20031;-70
2023/05/29 03:45:23;;;;;;;12.18;5.95;;;;;;;16.55;100.00;100129.81;4895960;29;20122;-70
2023/05/29 03:47:49;;;;;;;12.82;6.70;;;;;;;16.31;100.00;100086.22;4895561;29;20032;-71
2023/05/29 03:50:15;;;;;;;17.75;7.53;;;;;;;16.76;100.00;100142.13;4896228;29;20088;-71
2023/05/29 03:52:42;;;;;;;15.70;6.13;;;;;;;16.86;100.00;100149.97;4895479;29;20063;-71
2023/05/29 03:55:12;;;;;;;12.85;6.53;;;;;;;16.92;100.00;100139.63;4895924;29;20508;-71
2023/05/29 03:57:40;;;;;;;11.00;6.18;;;;;;;16.98;100.00;100139.66;4895906;29;20063;-70
2023/05/29 04:00:07;;;;;;;14.15;6.15;;;;;;;16.75;100.00;100092.59;4874918;29;20040;-72
2023/05/29 04:02:33;;;;;;;12.63;5.93;;;;;;;17.16;100.00;100135.41;4893806;29;20483;-72
2023/05/29 04:04:59;;;;;;;10.07;5.90;;;;;;;16.43;100.00;100030.72;4874321;29;20048;-71
2023/05/29 04:07:25;;;;;;;12.00;6.57;;;;;;;16.84;100.00;100128.25;4874117;29;20041;-71
2023/05/29 04:09:50;;;;;;;11.80;5.82;;;;;;;16.83;100.00;100127.38;4874125;29;20067;-70
2023/05/29 04:12:16;;;;;;;13.18;6.97;;;;;;;16.37;100.00;100049.78;4874260;29;20033;-70
2023/05/29 04:14:42;;;;;;;10.02;6.15;;;;;;;16.50;100.00;100075.06;4874397;29;20456;-70
2023/05/29 04:17:07;;;;;;;14.98;6.32;;;;;;;16.64;100.00;100113.38;4874194;29;20463;-71
2023/05/29 04:19:32;;;;;;;12.75;6.22;;;;;;;16.52;100.00;100097.66;4874316;29;20492;-70
2023/05/29 04:21:58;;;;;;;13.18;7.00;;;;;;;16.84;100.00;100129.13;4874090;29;20076;-72
2023/05/29 04:24:24;;;;;;;11.88;6.22;;;;;;;16.88;100.00;100125.66;4874215;29;20044;-70
2023/05/29 04:26:51;;;;;;;14.35;5.85;;;;;;;16.84;100.00;100133.47;4874165;29;20033;-70
2023/05/29 04:29:16;;;;;;;12.30;6.15;;;;;;;16.62;100.00;100110.75;4873883;29;20522;-69
2023/05/29 04:31:42;;;;;;;14.85;6.13;;;;;;;16.68;100.00;100129.91;4874016;29;20060;-70
2023/05/29 04:34:08;;;;;;;9.05;6.07;;;;;;;16.67;100.00;100115.97;4874188;29;20611;-71
2023/05/29 04:36:38;;;;;;;11.20;6.60;;;;;;;16.86;100.00;100134.34;4872509;29;20416;-70
2023/05/29 04:39:05;;;;;;;9.57;6.18;;;;;;;17.03;100.00;100144.91;4879060;29;20032;-72
2023/05/29 04:41:30;;;;;;;14.50;7.28;;;;;;;16.79;100.00;100083.91;4877956;29;20461;-72
2023/05/29 04:43:56;;;;;;;12.02;6.97;;;;;;;17.23;100.00;100147.59;4894941;29;20112;-72
2023/05/29 04:46:23;;;;;;;15.40;7.20;;;;;;;17.24;100.00;100136.31;4895191;29;20048;-71
2023/05/29 04:48:52;;;;;;;14.68;7.15;;;;;;;17.36;100.00;100148.53;4894787;29;20021;-72
2023/05/29 04:51:21;;;;;;;11.30;7.25;;;;;;;17.42;100.00;100153.75;4895177;29;20100;-70
2023/05/29 04:53:47;;;;;;;13.80;6.93;;;;;;;17.50;100.00;100159.03;4895339;29;20037;-71
2023/05/29 04:56:14;;;;;;;12.10;7.15;;;;;;;17.60;100.00;100155.59;4895142;29;20570;-72
2023/05/29 04:58:41;;;;;;;10.30;6.85;;;;;;;17.68;100.00;100158.22;4895677;29;20064;-70
2023/05/29 05:01:08;;;;;;;9.55;7.63;;;;;;;17.65;100.00;100148.63;4895345;29;20032;-76
2023/05/29 05:03:34;;;;;;;10.02;7.55;;;;;;;17.60;100.00;100158.19;4883628;29;20047;-71
2023/05/29 05:06:04;;;;;;;11.13;7.00;;;;;;;17.47;100.00;100139.03;4880512;29;20043;-74
2023/05/29 05:08:30;;;;;;;11.68;7.93;;;;;;;17.66;100.00;100154.72;4894516;29;20487;-72
2023/05/29 05:10:55;;;;;;;15.07;7.55;;;;;;;17.74;100.00;100172.13;4894476;29;20028;-70
2023/05/29 05:13:21;;;;;;;12.02;7.43;;;;;;;17.76;100.00;100157.34;4890205;29;20029;-72
2023/05/29 05:15:46;;;;;;;11.50;7.43;;;;;;;17.51;100.00;100122.50;4894501;29;20028;-70
2023/05/29 05:18:12;;;;;;;10.32;7.22;;;;;;;17.62;100.00;100161.69;4894608;29;20036;-72
2023/05/29 05:20:37;;;;;;;13.52;8.43;;;;;;;17.63;100.00;100164.28;4892524;29;20028;-72
2023/05/29 05:23:03;;;;;;;11.45;8.05;;;;;;;17.73;100.00;100170.41;4892325;29;20040;-71
2023/05/29 05:25:28;;;;;;;10.50;7.68;;;;;;;17.70;100.00;100152.13;4894638;29;20087;-71
2023/05/29 05:27:53;;;;;;;10.38;7.95;;;;;;;17.54;100.00;100127.72;4894846;29;20029;-71
2023/05/29 05:30:20;;;;;;;16.63;8.65;;;;;;;17.78;100.00;100165.19;4894663;29;20053;-76
2023/05/29 05:32:45;;;;;;;14.15;8.80;;;;;;;17.78;100.00;100160.84;4894505;29;20127;-72
2023/05/29 05:35:11;;;;;;;11.02;7.78;;;;;;;17.80;100.00;100171.28;4892502;29;20081;-72
2023/05/29 05:37:37;;;;;;;11.95;7.97;;;;;;;17.85;100.00;100163.47;4894988;29;20116;-69
2023/05/29 05:40:06;;;;;;;13.10;8.23;;;;;;;17.85;100.00;100150.44;4877957;29;20032;-71
2023/05/29 05:42:31;;;;;;;11.35;8.18;;;;;;;17.71;100.00;100101.66;4887474;29;20044;-72
2023/05/29 05:44:57;;;;;;;12.10;9.32;;;;;;;18.15;100.00;100161.81;4879715;29;20033;-71
2023/05/29 05:47:22;;;;;;;13.43;8.57;;;;;;;18.32;100.00;100174.88;4879252;29;20503;-72
2023/05/29 05:49:49;;;;;;;14.20;9.23;;;;;;;17.71;100.00;100062.50;4883119;29;20467;-71
2023/05/29 05:52:16;;;;;;;11.30;9.27;;;;;;;18.33;100.00;100156.59;4898440;29;20081;-72
2023/05/29 05:54:42;;;;;;;11.50;8.88;;;;;;;18.51;100.00;100176.63;4898250;29;20029;-72
2023/05/29 05:57:07;;;;;;;10.10;8.77;;;;;;;18.59;100.00;100169.66;4898093;29;20062;-71
2023/05/29 05:59:32;;;;;;;12.13;8.80;;;;;;;18.67;100.00;100171.41;4898112;29;20076;-71
2023/05/29 06:01:58;;;;;;;14.80;9.02;;;;;;;18.82;100.00;100170.50;4897667;29;20060;-71
2023/05/29 06:04:23;;;;;;;11.95;8.75;;;;;;;18.59;100.00;100119.09;4897989;29;20096;-72
2023/05/29 06:06:49;;;;;;;12.00;9.23;;;;;;;18.51;100.00;100113.03;4897927;29;20029;-72
2023/05/29 06:09:14;;;;;;;14.00;10.30;;;;;;;18.17;100.00;100056.44;4897744;29;20036;-70
2023/05/29 06:11:40;;;;;;;13.63;9.80;;;;;;;18.83;100.00;100146.97;4897483;29;20044;-75
2023/05/29 06:14:06;;;;;;;12.60;9.45;;;;;;;19.14;100.00;100170.47;4897946;29;20024;-73
2023/05/29 06:16:31;;;;;;;12.25;9.60;;;;;;;19.27;100.00;100171.28;4897376;29;20028;-74
2023/05/29 06:18:57;;;;;;;11.95;9.18;;;;;;;19.30;100.00;100173.91;4897537;29;20025;-71
2023/05/29 06:21:23;;;;;;;13.77;8.55;;;;;;;19.37;100.00;100180.81;4897637;29;20407;-72
2023/05/29 06:23:48;;;;;;;13.43;8.95;;;;;;;19.42;100.00;100151.16;4897674;29;20036;-73
2023/05/29 06:26:15;;;;;;;11.38;8.38;;;;;;;19.18;100.00;100105.91;4897492;29;20052;-72
2023/05/29 06:28:41;;;;;;;9.68;8.30;;;;;;;19.49;100.00;100151.13;4880454;29;20480;-73
2023/05/29 06:31:07;;;;;;;8.70;7.80;;;;;;;19.62;100.00;100165.00;4897385;29;20085;-73
2023/05/29 06:33:32;;;;;;;9.90;7.63;;;;;;;19.75;100.00;100165.84;4897506;29;20035;-72
2023/05/29 06:35:57;;;;;;;10.23;7.85;;;;;;;19.50;100.00;100103.13;4893699;29;20039;-73
2023/05/29 06:38:23;;;;;;;9.13;8.15;;;;;;;19.97;100.00;100163.09;4878618;29;20093;-71
2023/05/29 06:40:48;;;;;;;11.32;7.63;;;;;;;20.04;100.00;100167.44;4878644;29;20047;-70
2023/05/29 06:43:14;;;;;;;9.73;6.03;;;;;;;19.88;100.00;100140.44;4878808;29;20115;-72
2023/05/29 06:45:40;;;;;;;8.05;5.65;;;;;;;20.01;100.00;100167.44;4878410;29;20469;-72
2023/05/29 06:48:06;;;;;;;7.72;5.95;;;;;;;19.86;100.00;100127.38;4878316;29;20553;-72
2023/05/29 06:50:32;;;;;;;10.40;6.70;;;;;;;20.16;100.00;100162.09;4878544;29;20108;-73
2023/05/29 06:52:57;;;;;;;9.05;6.75;;;;;;;20.27;100.00;100166.38;4877420;29;20093;-72
2023/05/29 06:55:22;;;;;;;7.63;6.20;;;;;;;20.28;100.00;100165.50;4878319;29;20491;-72
2023/05/29 06:57:48;;;;;;;9.57;5.63;;;;;;;19.72;100.00;100077.66;4878412;29;20033;-73
2023/05/29 07:00:14;;;;;;;9.77;6.57;;;;;;;20.22;100.00;100160.31;4877921;29;20037;-73
2023/05/29 07:02:39;;;;;;;7.65;6.05;;;;;;;20.32;100.00;100173.31;4878264;29;20436;-72
2023/05/29 07:05:05;;;;;;;7.07;5.53;;;;;;;20.35;100.00;100177.69;4878234;29;20037;-71
2023/05/29 07:07:31;;;;;;;7.72;5.47;;;;;;;20.34;100.00;100176.81;4877825;29;20484;-74
2023/05/29 07:09:56;;;;;;;7.65;5.43;;;;;;;19.65;100.00;100064.59;4878451;29;20463;-73
2023/05/29 07:12:23;;;;;;;9.07;6.50;;;;;;;20.25;100.00;100183.88;4877761;29;20404;-71
2023/05/29 07:14:48;;;;;;;8.32;5.97;;;;;;;20.14;100.00;100173.47;4877826;29;20033;-72
2023/05/29 07:17:15;;;;;;;8.43;5.93;;;;;;;20.14;100.00;100169.09;4877780;29;20036;-71
2023/05/29 07:19:40;;;;;;;8.05;5.88;;;;;;;20.17;100.00;100173.44;4888103;29;20119;-72
2023/05/29 07:22:06;;;;;;;6.47;5.78;;;;;;;19.89;100.00;100126.47;4896064;29;20116;-71
2023/05/29 07:24:31;;;;;;;7.43;5.82;;;;;;;19.93;100.00;100116.84;4895866;29;20037;-71
2023/05/29 07:26:57;;;;;;;9.68;5.82;;;;;;;20.26;100.00;100188.22;4895932;29;20020;-70
2023/05/29 07:29:23;;;;;;;7.53;5.90;;;;;;;20.28;100.00;100176.84;4895297;29;20055;-69
2023/05/29 07:31:50;;;;;;;9.55;6.22;;;;;;;20.31;100.00;100165.47;4891820;29;20040;-74
2023/05/29 07:34:15;;;;;;;9.07;7.05;;;;;;;20.35;100.00;100164.56;4890249;29;20388;-70
2023/05/29 07:37:11;;;;;;;10.00;7.35;;;;;;;20.32;100.00;100159.34;4894116;29;20036;-70
2023/05/29 07:39:36;;;;;;;9.05;7.03;;;;;;;20.33;100.00;100145.34;4843389;29;20050;-74
2023/05/29 07:42:03;;;;;;;9.75;6.53;;;;;;;20.40;100.00;100162.78;4855644;29;20417;-71
2023/05/29 07:44:28;;;;;;;8.35;6.22;;;;;;;20.54;100.00;100175.78;4851345;29;20045;-71
2023/05/29 07:46:54;;;;;;;7.45;6.32;;;;;;;20.40;100.00;100161.91;4856257;29;20041;-71
2023/05/29 07:49:20;;;;;;;7.10;6.35;;;;;;;20.65;100.00;100186.19;4855479;29;20124;-72
2023/05/29 07:51:45;;;;;;;8.20;6.35;;;;;;;20.36;100.00;100126.97;4855844;29;20112;-73
2023/05/29 07:54:11;;;;;;;8.13;6.03;;;;;;;20.55;100.00;100158.28;4854969;29;20032;-72
2023/05/29 07:56:37;;;;;;;8.55;6.40;;;;;;;20.75;100.00;100177.34;4855268;29;20045;-70
2023/05/29 07:59:03;;;;;;;10.38;6.78;;;;;;;20.76;100.00;100154.59;4855516;29;20073;-74
2023/05/29 08:01:29;;;;;;;7.47;6.28;;;;;;;20.92;100.00;100165.81;4855317;29;20076;-72
2023/05/29 08:03:54;;;;;;;8.23;5.45;;;;;;;20.98;100.00;100174.47;4839314;29;20057;-75
2023/05/29 08:06:20;;;;;;;6.80;5.78;;;;;;;20.97;100.00;100169.25;4840059;29;20039;-72
2023/05/29 08:08:46;;;;;;;8.07;5.55;;;;;;;21.02;100.00;100175.31;4839169;29;20044;-73
2023/05/29 08:11:11;;;;;;;6.72;5.72;;;;;;;20.96;100.00;100164.88;4836843;29;20048;-72
2023/05/29 08:13:37;;;;;;;6.95;5.68;;;;;;;20.84;100.00;100142.28;4837147;29;20045;-71
2023/05/29 08:16:03;;;;;;;6.72;5.40;;;;;;;20.95;100.00;100157.94;4867108;29;20477;-72
2023/05/29 08:18:31;;;;;;;8.68;5.88;;;;;;;20.90;100.00;100159.69;4895096;29;20055;-71
2023/05/29 08:20:56;;;;;;;7.75;5.80;;;;;;;20.87;100.00;100142.25;4894984;29;20476;-71
2023/05/29 08:23:22;;;;;;;10.60;5.47;;;;;;;21.01;100.00;100177.09;4894370;29;20061;-72
2023/05/29 08:25:47;;;;;;;7.25;5.57;;;;;;;20.99;100.00;100159.63;4894824;29;20041;-72
2023/05/29 08:28:14;;;;;;;8.45;5.78;;;;;;;21.12;100.00;100148.09;4895094;29;20450;-72
2023/05/29 08:30:40;;;;;;;7.22;5.78;;;;;;;20.95;100.00;100101.06;4894758;29;20051;-72
2023/05/29 08:33:05;;;;;;;7.28;4.65;;;;;;;21.23;100.00;100152.34;4894979;29;20021;-73
2023/05/29 08:35:31;;;;;;;8.68;5.40;;;;;;;21.07;100.00;100142.03;4894834;29;20040;-75
2023/05/29 08:37:56;;;;;;;6.68;4.60;;;;;;;20.98;100.00;100144.75;4894943;29;20040;-71
2023/05/29 08:40:21;;;;;;;7.60;5.10;;;;;;;20.76;100.00;100117.88;4894126;29;20033;-72
2023/05/29 08:43:02;;;;;;;9.00;4.93;;;;;;;20.73;100.00;100118.78;4894344;29;20044;-76
2023/05/29 08:45:29;;;;;;;9.13;4.65;;;;;;;20.89;100.00;100124.72;4895067;29;20389;-75
2023/05/29 08:47:57;;;;;;;5.93;3.80;;;;;;;21.03;100.00;100156.06;4894452;29;20107;-76
2023/05/29 08:50:23;;;;;;;5.72;3.67;;;;;;;20.70;100.00;100095.19;4894894;29;20025;-75
2023/05/29 08:52:49;;;;;;;6.65;4.00;;;;;;;21.23;100.00;100119.06;4893627;29;20071;-74
2023/05/29 08:55:15;;;;;;;6.18;4.22;;;;;;;21.63;100.00;100117.69;4888943;29;20037;-73
2023/05/29 08:57:43;;;;;;;5.28;3.67;;;;;;;21.76;100.00;100121.03;4886016;29;20037;-72
2023/05/29 09:00:12;;;;;;;4.43;3.28;;;;;;;21.79;100.00;100115.72;4893935;29;20116;-72
2023/05/29 09:02:41;;;;;;;4.97;3.47;;;;;;;22.02;100.00;100120.63;4894596;29;20040;-74
2023/05/29 09:05:08;;;;;;;3.88;2.80;;;;;;;21.78;100.00;100056.19;4893861;29;20028;-72
2023/05/29 09:07:34;;;;;;;6.05;3.00;;;;;;;22.23;100.00;100115.91;4894320;29;20045;-74
2023/05/29 09:10:00;;;;;;;5.82;2.72;;;;;;;22.12;100.00;100072.25;4884943;29;20044;-73
2023/05/29 09:12:26;;;;;;;5.40;2.90;;;;;;;22.47;100.00;100098.88;4894414;29;20372;-75
2023/05/29 09:14:52;;;;;;;4.78;2.90;;;;;;;22.69;100.00;100116.88;4894155;29;20032;-72
2023/05/29 09:17:17;;;;;;;4.47;2.95;;;;;;;22.52;100.00;100062.81;4897037;29;20044;-70
2023/05/29 09:19:44;;;;;;;5.20;2.70;;;;;;;22.67;100.00;100116.91;4897455;29;20036;-74
2023/05/29 09:22:17;;;;;;;8.55;3.20;;;;;;;22.34;100.00;100071.03;4898406;29;20020;-72
2023/05/29 09:24:47;;;;;;;3.40;2.50;;;;;;;22.16;100.00;100104.63;4897779;29;20043;-73
2023/05/29 09:27:13;;;;;;;5.00;2.83;;;;;;;22.10;100.00;100088.97;4897240;29;20431;-70
2023/05/29 09:29:40;;;;;;;3.88;2.78;;;;;;;22.04;100.00;100102.22;4863786;29;20068;-72
2023/05/29 09:32:10;;;;;;;4.95;2.95;;;;;;;21.98;100.00;100076.88;4893358;29;20465;-71
2023/05/29 09:34:35;;;;;;;;;;;;;;;22.28;100.00;100109.69;4897979;29;20551;-71
2023/05/29 09:37:09;;;;;;;5.47;2.80;;;;;;;22.43;100.00;100110.31;4897501;29;19919;-72
2023/05/29 09:39:45;;;;;;;8.93;3.15;;;;;;;22.29;100.00;100105.28;4896090;29;20103;-75
2023/05/29 09:42:11;;;;;;;4.32;2.28;;;;;;;21.77;100.00;100065.84;4897446;29;20071;-72
2023/05/29 09:44:36;;;;;;;9.88;3.40;;;;;;;21.93;100.00;100098.00;4896835;29;20036;-72
2023/05/29 09:47:02;;;;;;;4.13;3.00;;;;;;;21.88;100.00;100117.34;4895527;29;20559;-73
2023/05/29 09:49:28;;;;;;;8.05;4.70;;;;;;;21.73;100.00;100160.47;4897665;29;20112;-71
2023/05/29 09:51:54;;;;;;;12.27;5.13;;;;;;;21.39;100.00;100119.75;4897605;29;20028;-71
2023/05/29 09:54:20;;;;;;;8.23;4.40;;;;;;;21.28;100.00;100140.91;4896952;29;20036;-72
2023/05/29 09:56:46;;;;;;;6.53;4.03;;;;;;;20.82;100.00;100097.72;4897192;29;20037;-70
2023/05/29 09:59:12;;;;;;;6.97;3.42;;;;;;;21.01;100.00;100134.25;4897694;29;20033;-73
2023/05/29 10:01:43;;;;;;;5.82;3.83;;;;;;;20.33;100.00;100056.22;4896131;29;20111;-73
2023/05/29 10:04:10;;;;;;;7.35;3.95;;;;;;;20.62;100.00;100136.34;4894677;29;20033;-75
2023/05/29 10:06:37;;;;;;;17.65;4.43;;;;;;;20.39;100.00;100120.81;4896673;29;20064;-72
2023/05/29 10:09:07;;;;;;;10.43;4.60;;;;;;;20.43;100.00;100120.78;4897337;29;20032;-74
2023/05/29 10:11:34;;;;;;;12.25;4.80;;;;;;;20.24;100.00;100106.09;4896998;29;20039;-74
2023/05/29 10:14:02;;;;;;;8.70;4.78;;;;;;;20.25;100.00;100120.94;4896816;29;20027;-73
2023/05/29 10:16:28;;;;;;;10.25;5.60;;;;;;;20.34;100.00;100144.47;4896841;29;20051;-74
2023/05/29 10:18:55;;;;;;;7.22;4.50;;;;;;;20.25;100.00;100132.31;4896872;29;20040;-71
2023/05/29 10:21:22;;;;;;;8.40;4.80;;;;;;;20.07;100.00;100135.94;4896834;29;20038;-72
2023/05/29 10:23:50;;;;;;;7.45;4.60;;;;;;;19.83;100.00;100106.44;4896914;29;20028;-72
2023/05/29 10:26:21;;;;;;;10.52;4.82;;;;;;;20.22;100.00;100166.41;4896316;29;20033;-74
2023/05/29 10:29:10;;;;;;;9.48;5.40;;;;;;;19.97;100.00;100105.47;4895187;29;20063;-72
2023/05/29 10:31:52;;;;;;;9.40;4.80;;;;;;;20.23;100.00;100149.81;4896909;29;20060;-69
2023/05/29 10:34:43;;;;;;;7.03;4.07;;;;;;;20.22;100.00;100160.31;4896831;29;20179;-71
2023/05/29 10:37:35;;;;;;;10.73;5.63;;;;;;;20.10;100.00;100166.50;4896538;29;20033;-73
2023/05/29 10:40:14;;;;;;;8.63;4.78;;;;;;;19.43;100.00;100169.47;4856866;29;20073;-70
2023/05/29 10:42:45;;;;;;;7.30;4.57;;;;;;;19.12;100.00;100166.09;4856256;29;20068;-71
2023/05/29 10:45:31;;;;;;;11.95;4.75;;;;;;;18.76;100.00;100174.00;4856126;29;20049;-70
2023/05/29 10:48:16;;;;;;;7.18;4.45;;;;;;;18.64;100.00;100182.75;4857044;29;20033;-71
2023/05/29 10:50:44;;;;;;;9.05;4.80;;;;;;;18.61;100.00;100179.25;4856138;29;20497;-72
2023/05/29 10:53:14;;;;;;;10.15;4.78;;;;;;;18.56;100.00;100172.25;4856022;29;20033;-71
2023/05/29 10:55:40;;;;;;;9.15;4.97;;;;;;;18.67;100.00;100167.03;4849304;29;20516;-74
2023/05/29 10:58:13;;;;;;;8.27;4.60;;;;;;;18.87;100.00;100174.84;4850223;29;20584;-75
2023/05/29 13:56:50;;;;;;;8.35;5.82;;;;;;;19.52;100.00;100059.44;4870917;29;20064;-72
2023/05/29 13:59:15;;;;;;;8.93;6.05;;;;;;;19.80;100.00;100097.69;4879002;29;20049;-71
2023/05/29 14:01:41;;;;;;;8.65;6.80;;;;;;;20.04;100.00;100126.34;4878482;29;20104;-72
2023/05/29 14:04:06;;;;;;;11.10;7.25;;;;;;;20.07;100.00;100119.38;4878560;29;20478;-72
2023/05/29 14:06:33;;;;;;;9.90;7.15;;;;;;;20.10;100.00;100117.59;4860728;29;20105;-72
2023/05/29 14:08:59;;;;;;;9.43;7.30;;;;;;;20.12;100.00;100107.94;4877056;29;20040;-71